Hauptseite
METAR-TAF:

METAR-TAF

Flughäfen :

Flughafen Kadala

Tschita, Russland

Breite: 52-05N, Länge: 113-29E, Höhe: 685 m

Beobachtung

Neuester Wetterbericht von vor 26 Minuten, um 01:00 UTC
Wind 2 kt aus unterschiedlichen Richtungen
Temperatur 20°C
Luftfeuchtigkeit 64%
Luftdruck 1002 hPa
Sichtweite 10 km oder mehr

METAR: UIAA 180100Z VRB01MPS 9999 NSC 20/13 Q1002 R29/CLRD70 NOSIG RMK QFE693/0924

Zeit: 10:26 (01:26 UTC)

Prognose

Neuester Wetterbericht von vor 2 Stunden und 26 Minuten, um 23:00 UTC
Gültige Prognose vom 18 um 00 UTC bis 18 um 24 UTC
Wind 6 kt aus Nord, Böen bis zu 16 kt
Sichtweite 10 km oder mehr
Aufgelockert bewölkt in der Höhe von 4000 ft, Kumulonimbus.
Zeitweise
vom 18 um 00 UTC bis 18 um 12 UTC
Wind 10 kt aus Nordost, Böen bis zu 19 kt
Sichtweite: 3100 m
Regenschauer,

TAF: UIAA 172300Z 1800/1824 35003G08MPS 9999 SCT040CB TEMPO 1800/1812 05005G10MPS 3100 -SHRA

Wetterbeobachtungen und Prognosen von mehr als 4000 Flughäfen (METAR und TAF Bericht).

Die verfügbaren Stationen werden durch gelbe und rote Markierungen auf der Karte dargestellt.

Führen Sie die Maus auf sie, um den Namen der Station zu sehen.

Darauf klicken, um die Beobachtung von Wetterbeobachtungen und Prognosen zu sehen.

Um die Karte zu ändern : klicken Sie auf den grünen Tasten mit einem schwarzen Kreuz Zum Vergrößern, auf den grünen Button mit einem Gedankenstrich zu verkleinern, oder auf die grünen Pfeile für benachbarte Karten.


METAR-TAF: